createdAt,value
2023-12-04T00:00:33.982Z,5.49
2023-12-04T00:05:35.668Z,6.19
2023-12-04T00:10:37.185Z,6.39
2023-12-04T00:15:38.706Z,5.58
2023-12-04T00:20:40.242Z,6.35
2023-12-04T00:25:41.798Z,5.75
2023-12-04T00:30:43.387Z,6.05
2023-12-04T00:35:44.928Z,5.53
2023-12-04T00:40:46.477Z,5.66
2023-12-04T00:45:48.002Z,5.50
2023-12-04T00:50:49.533Z,5.82
2023-12-04T00:55:51.100Z,5.80
2023-12-04T01:00:53.520Z,5.74
2023-12-04T01:05:55.081Z,5.90
2023-12-04T01:10:56.597Z,5.91
2023-12-04T01:15:58.090Z,6.20
2023-12-04T01:20:59.616Z,4.88
2023-12-04T01:26:01.247Z,5.38
2023-12-04T01:31:02.815Z,5.69
2023-12-04T01:36:04.624Z,5.55
2023-12-04T01:41:06.666Z,5.69
2023-12-04T01:46:08.262Z,6.09
2023-12-04T01:51:10.560Z,5.94
2023-12-04T01:56:12.173Z,5.88
2023-12-04T02:01:13.693Z,6.36
2023-12-04T02:06:15.294Z,6.12
2023-12-04T02:11:16.897Z,5.84
2023-12-04T02:16:19.856Z,5.80
2023-12-04T02:21:21.343Z,5.26
2023-12-04T02:26:31.952Z,5.76
2023-12-04T02:31:33.489Z,6.04
2023-12-04T02:36:35.429Z,5.74
2023-12-04T02:41:36.930Z,5.78
2023-12-04T02:46:38.869Z,6.10
2023-12-04T02:51:42.562Z,4.97
2023-12-04T02:56:44.122Z,5.68
2023-12-04T03:01:45.681Z,5.64
2023-12-04T03:06:47.276Z,5.97
2023-12-04T03:11:48.768Z,5.82
2023-12-04T03:16:50.796Z,5.78
2023-12-04T03:21:52.316Z,5.41
2023-12-04T03:26:53.810Z,5.73
2023-12-04T03:31:55.340Z,5.53
2023-12-04T03:36:56.934Z,5.84
2023-12-04T03:41:58.511Z,6.30
2023-12-04T03:47:00.039Z,5.58
2023-12-04T03:52:01.565Z,5.34
2023-12-04T03:57:03.301Z,5.61
2023-12-04T04:02:04.909Z,5.77
2023-12-04T04:07:06.797Z,5.98
2023-12-04T04:12:08.463Z,4.95
2023-12-04T04:17:09.968Z,5.15
2023-12-04T04:22:11.854Z,6.36
2023-12-04T04:27:13.415Z,5.61
2023-12-04T04:32:15.282Z,5.73
2023-12-04T04:37:16.852Z,5.05
2023-12-04T04:42:18.417Z,5.39
2023-12-04T04:47:19.926Z,5.64
2023-12-04T04:52:21.452Z,5.19
2023-12-04T04:57:23.001Z,5.73
2023-12-04T05:02:24.529Z,5.47
2023-12-04T05:07:26.025Z,5.90
2023-12-04T05:12:27.512Z,5.61
2023-12-04T05:17:29.057Z,5.38
2023-12-04T05:22:30.595Z,5.91
2023-12-04T05:27:32.159Z,5.24
2023-12-04T05:32:33.706Z,5.41
2023-12-04T05:37:35.261Z,5.83
2023-12-04T05:42:37.361Z,5.67
2023-12-04T05:47:38.942Z,5.28
2023-12-04T05:52:40.442Z,5.69
2023-12-04T05:57:42.002Z,5.11
2023-12-04T06:02:43.856Z,5.40
2023-12-04T06:07:45.432Z,5.63
2023-12-04T06:12:46.979Z,5.61
2023-12-04T06:17:48.525Z,5.74
2023-12-04T06:22:50.298Z,5.70
2023-12-04T06:27:52.464Z,5.12
2023-12-04T06:32:54.324Z,4.99
2023-12-04T06:37:56.215Z,4.45
2023-12-04T06:42:58.000Z,4.68
2023-12-04T06:48:00.092Z,4.96
2023-12-04T06:53:01.641Z,5.30
2023-12-04T06:58:03.205Z,4.96
2023-12-04T07:03:04.754Z,5.31
2023-12-04T07:08:06.381Z,5.14
2023-12-04T07:13:07.905Z,5.34
2023-12-04T07:18:09.914Z,5.21
2023-12-04T07:23:11.454Z,5.56
2023-12-04T07:28:12.970Z,5.54
2023-12-04T07:33:14.648Z,5.38
2023-12-04T07:38:16.271Z,5.03
2023-12-04T07:43:18.855Z,5.59
2023-12-04T07:48:20.842Z,5.18
2023-12-04T07:53:22.376Z,5.77
2023-12-04T07:58:23.922Z,6.11
2023-12-04T08:03:25.629Z,5.87
2023-12-04T08:08:27.194Z,6.22
2023-12-04T08:13:28.738Z,5.47
2023-12-04T08:18:30.276Z,5.56
2023-12-04T08:23:31.792Z,5.40
2023-12-04T08:28:34.475Z,5.44
2023-12-04T08:33:36.105Z,5.21
2023-12-04T08:38:37.723Z,4.92
2023-12-04T08:43:39.275Z,5.28
2023-12-04T08:48:44.095Z,5.28
2023-12-04T08:53:45.869Z,5.38
2023-12-04T08:58:47.452Z,5.33
2023-12-04T09:03:49.137Z,5.44
2023-12-04T09:08:57.755Z,5.47
2023-12-04T09:14:04.911Z,4.91
2023-12-04T09:19:06.601Z,5.24
2023-12-04T09:24:08.193Z,5.35
2023-12-04T09:29:09.986Z,5.23
2023-12-04T09:34:11.502Z,5.38
2023-12-04T09:39:13.028Z,5.71
2023-12-04T09:44:14.951Z,5.55
2023-12-04T09:49:17.852Z,5.60
2023-12-04T09:54:20.773Z,6.08
2023-12-04T09:59:24.861Z,5.89
2023-12-04T10:04:26.466Z,5.97
2023-12-04T10:09:28.633Z,6.00
2023-12-04T10:14:31.189Z,5.78
2023-12-04T10:19:32.727Z,6.09
2023-12-04T10:24:36.668Z,6.07
2023-12-04T10:29:53.580Z,6.01
2023-12-04T10:34:56.151Z,6.24
2023-12-04T10:39:57.667Z,5.92
2023-12-04T10:44:59.628Z,5.77
2023-12-04T10:50:02.375Z,5.96
2023-12-04T10:55:07.515Z,6.48
2023-12-04T11:00:09.531Z,6.42
2023-12-04T11:05:18.543Z,6.24
2023-12-04T11:10:22.611Z,6.64
2023-12-04T11:15:24.722Z,6.68
2023-12-04T11:20:28.472Z,6.27
2023-12-04T11:25:30.056Z,6.40
2023-12-04T11:30:31.656Z,6.41
2023-12-04T11:35:34.522Z,6.44
2023-12-04T11:40:37.671Z,6.20
2023-12-04T11:45:40.843Z,6.77
2023-12-04T11:50:46.213Z,6.20
2023-12-04T11:55:47.755Z,6.20
2023-12-04T12:00:49.741Z,6.76
2023-12-04T12:05:53.023Z,6.52
2023-12-04T12:10:55.895Z,6.69
2023-12-04T12:15:59.649Z,7.09
2023-12-04T12:21:01.560Z,7.08
2023-12-04T12:26:03.120Z,6.54
2023-12-04T12:31:04.804Z,6.36
2023-12-04T12:36:08.481Z,6.84
2023-12-04T12:41:12.401Z,6.94
2023-12-04T12:46:13.934Z,7.19
2023-12-04T12:51:15.688Z,7.11
2023-12-04T12:56:17.303Z,7.09
2023-12-04T13:01:18.891Z,7.25
2023-12-04T13:06:20.567Z,7.29
2023-12-04T13:11:22.114Z,6.97
2023-12-04T13:16:23.697Z,6.94
2023-12-04T13:21:25.250Z,6.96
2023-12-04T13:26:26.740Z,6.88
2023-12-04T13:31:29.024Z,6.62
2023-12-04T13:36:30.592Z,7.07
2023-12-04T13:41:51.011Z,6.85
2023-12-04T13:46:53.463Z,7.22
2023-12-04T13:51:55.268Z,7.05
2023-12-04T13:56:57.876Z,7.26
2023-12-04T14:02:01.692Z,7.19
2023-12-04T14:07:05.572Z,7.12
2023-12-04T14:12:08.646Z,6.86
2023-12-04T14:17:11.425Z,7.39
2023-12-04T14:22:12.972Z,7.18
2023-12-04T14:27:15.384Z,6.98
2023-12-04T14:32:17.033Z,7.18
2023-12-04T14:37:18.556Z,7.14
2023-12-04T14:42:20.068Z,7.15
2023-12-04T14:47:21.577Z,7.24
2023-12-04T14:52:23.631Z,6.94
2023-12-04T14:57:40.285Z,7.16
2023-12-04T15:02:47.759Z,7.24
2023-12-04T15:08:07.831Z,7.32
2023-12-04T15:13:29.300Z,7.02
2023-12-04T15:18:37.903Z,6.95
2023-12-04T15:23:39.492Z,7.16
2023-12-04T15:28:41.019Z,7.38
2023-12-04T15:33:42.624Z,7.20
2023-12-04T15:38:45.221Z,7.05
2023-12-04T15:43:49.646Z,6.87
2023-12-04T15:48:51.308Z,6.67
2023-12-04T15:53:52.983Z,6.66
2023-12-04T15:58:54.498Z,7.15
2023-12-04T16:03:56.069Z,7.02
2023-12-04T16:08:58.967Z,7.15
2023-12-04T16:14:01.303Z,7.36
2023-12-04T16:19:02.999Z,7.27
2023-12-04T16:24:05.406Z,7.09
2023-12-04T16:29:06.944Z,7.14
2023-12-04T16:34:08.831Z,7.28
2023-12-04T16:39:10.503Z,7.23
2023-12-04T16:44:16.380Z,6.97
2023-12-04T16:49:18.028Z,7.30
2023-12-04T16:54:20.947Z,7.04
2023-12-04T16:59:22.528Z,7.14
2023-12-04T17:04:24.442Z,7.01
2023-12-04T17:09:26.111Z,7.08
2023-12-04T17:14:27.609Z,7.21
2023-12-04T17:19:32.319Z,7.22
2023-12-04T17:24:34.334Z,7.08
2023-12-04T17:29:37.551Z,6.96
2023-12-04T17:34:40.008Z,7.25
2023-12-04T17:39:42.652Z,7.06
2023-12-04T17:44:44.202Z,7.03
2023-12-04T17:49:46.473Z,7.14
2023-12-04T17:54:48.085Z,6.85
2023-12-04T17:59:50.322Z,6.76
2023-12-04T18:04:52.073Z,7.03
2023-12-04T18:09:53.653Z,6.98
2023-12-04T18:14:55.177Z,7.03
2023-12-04T18:19:56.815Z,7.18
2023-12-04T18:24:59.063Z,6.21
2023-12-04T18:30:01.382Z,6.81
2023-12-04T18:35:03.050Z,6.88
2023-12-04T18:40:07.736Z,6.84
2023-12-04T18:45:09.722Z,7.06
2023-12-04T18:50:11.655Z,7.35
2023-12-04T18:55:13.159Z,7.10
2023-12-04T19:00:15.303Z,7.15
2023-12-04T19:05:16.962Z,6.98
2023-12-04T19:10:18.635Z,7.32
2023-12-04T19:15:20.269Z,7.03
2023-12-04T19:20:21.781Z,7.13
2023-12-04T19:25:29.722Z,6.87
2023-12-04T19:30:34.558Z,7.10
2023-12-04T19:35:36.806Z,7.21
2023-12-04T19:40:38.299Z,7.01
2023-12-04T19:45:39.831Z,7.07
2023-12-04T19:50:42.501Z,7.28
2023-12-04T19:55:44.064Z,7.29
2023-12-04T20:00:46.083Z,7.35
2023-12-04T20:05:47.767Z,7.48
2023-12-04T20:10:49.303Z,7.62
2023-12-04T20:15:50.835Z,7.16
2023-12-04T20:20:52.400Z,6.68
2023-12-04T20:25:53.899Z,7.23
2023-12-04T20:30:56.185Z,7.25
2023-12-04T20:35:57.889Z,7.45
2023-12-04T20:40:59.384Z,7.45
2023-12-04T20:46:07.551Z,7.15
2023-12-04T20:51:09.108Z,7.41
2023-12-04T20:56:11.053Z,6.89
2023-12-04T21:01:18.587Z,7.19
2023-12-04T21:06:20.241Z,7.18
2023-12-04T21:11:21.800Z,7.22
2023-12-04T21:16:23.300Z,7.32
2023-12-04T21:21:25.150Z,6.79
2023-12-04T21:26:26.659Z,7.20
2023-12-04T21:31:28.200Z,7.39
2023-12-04T21:36:30.093Z,7.26
2023-12-04T21:41:32.677Z,7.41
2023-12-04T21:46:36.646Z,7.32
2023-12-04T21:51:40.046Z,6.85
2023-12-04T21:56:41.543Z,6.76
2023-12-04T22:01:43.129Z,6.91
2023-12-04T22:06:44.837Z,6.84
2023-12-04T22:11:46.376Z,6.87
2023-12-04T22:16:47.887Z,7.10
2023-12-04T22:21:49.817Z,6.59
2023-12-04T22:26:52.522Z,6.94
2023-12-04T22:31:54.022Z,6.71
2023-12-04T22:36:55.558Z,7.10
2023-12-04T22:41:57.121Z,6.97
2023-12-04T22:46:58.651Z,6.94
2023-12-04T22:52:00.427Z,7.25
2023-12-04T22:57:01.951Z,6.44
2023-12-04T23:02:04.283Z,6.97
2023-12-04T23:07:06.888Z,6.83
2023-12-04T23:12:08.681Z,6.96
2023-12-04T23:17:10.207Z,6.72
2023-12-04T23:22:12.448Z,6.69
2023-12-04T23:27:15.014Z,6.37
2023-12-04T23:32:19.629Z,5.94
2023-12-04T23:37:21.153Z,6.62
2023-12-04T23:42:22.869Z,6.20
2023-12-04T23:47:24.456Z,6.36
2023-12-04T23:52:25.939Z,6.34
2023-12-04T23:57:27.499Z,6.09
